createdAt,value
2023-01-28T00:01:23.112Z,16.10
2023-01-28T00:03:54.360Z,16.10
2023-01-28T00:06:22.705Z,16.10
2023-01-28T00:08:50.445Z,16.10
2023-01-28T00:11:19.853Z,16.10
2023-01-28T00:13:54.537Z,16.00
2023-01-28T00:16:22.943Z,16.00
2023-01-28T00:21:37.366Z,16.00
2023-01-28T00:24:09.348Z,16.00
2023-01-28T00:26:41.271Z,16.00
2023-01-28T00:29:11.286Z,15.90
2023-01-28T00:31:43.719Z,15.90
2023-01-28T00:34:12.823Z,15.90
2023-01-28T00:36:43.201Z,15.90
2023-01-28T00:39:18.473Z,15.90
2023-01-28T00:41:50.524Z,15.90
2023-01-28T00:44:22.379Z,15.90
2023-01-28T00:46:54.992Z,15.90
2023-01-28T00:49:26.576Z,15.90
2023-01-28T00:51:57.899Z,15.80
2023-01-28T00:54:30.154Z,15.80
2023-01-28T00:57:01.673Z,15.80
2023-01-28T00:59:30.426Z,15.80
2023-01-28T01:02:12.777Z,15.80
2023-01-28T01:04:45.813Z,15.80
2023-01-28T01:07:17.390Z,15.70
2023-01-28T01:09:46.490Z,15.80
2023-01-28T01:12:15.393Z,15.80
2023-01-28T01:14:45.366Z,15.80
2023-01-28T01:17:15.170Z,15.70
2023-01-28T01:19:46.676Z,15.70
2023-01-28T01:22:20.891Z,15.80
2023-01-28T01:24:48.699Z,15.70
2023-01-28T01:27:18.937Z,15.70
2023-01-28T01:29:50.084Z,15.70
2023-01-28T01:32:19.624Z,15.70
2023-01-28T01:34:48.775Z,15.70
2023-01-28T01:37:20.949Z,15.70
2023-01-28T01:39:49.935Z,15.70
2023-01-28T01:42:19.655Z,15.60
2023-01-28T01:45:14.430Z,15.70
2023-01-28T01:47:53.088Z,15.70
2023-01-28T01:50:29.078Z,15.70
2023-01-28T01:53:26.240Z,15.60
2023-01-28T01:56:02.992Z,15.70
2023-01-28T01:58:34.476Z,15.60
2023-01-28T02:01:04.296Z,15.60
2023-01-28T02:03:54.219Z,15.60
2023-01-28T02:06:23.585Z,15.60
2023-01-28T02:08:58.004Z,15.60
2023-01-28T02:14:22.424Z,15.60
2023-01-28T02:16:59.868Z,15.60
2023-01-28T02:19:33.008Z,15.60
2023-01-28T02:22:39.794Z,15.50
2023-01-28T02:25:37.353Z,15.50
2023-01-28T02:28:23.081Z,15.50
2023-01-28T02:31:32.441Z,15.50
2023-01-28T02:34:27.969Z,15.60
2023-01-28T02:37:22.809Z,15.50
2023-01-28T02:40:26.301Z,15.50
2023-01-28T02:43:00.057Z,15.50
2023-01-28T02:45:52.716Z,15.50
2023-01-28T02:48:26.238Z,15.50
2023-01-28T02:51:15.257Z,15.50
2023-01-28T02:54:02.227Z,15.50
2023-01-28T02:59:50.606Z,15.50
2023-01-28T03:03:02.580Z,15.50
2023-01-28T03:05:38.252Z,15.50
2023-01-28T03:08:29.432Z,15.40
2023-01-28T03:11:19.346Z,15.40
2023-01-28T03:14:08.663Z,15.40
2023-01-28T03:17:00.311Z,15.50
2023-01-28T03:19:47.652Z,15.40
2023-01-28T03:22:37.525Z,15.50
2023-01-28T03:25:31.391Z,15.40
2023-01-28T03:28:24.729Z,15.40
2023-01-28T03:31:24.292Z,15.40
2023-01-28T03:34:20.960Z,15.40
2023-01-28T03:36:56.979Z,15.40
2023-01-28T03:39:34.508Z,15.40
2023-01-28T03:42:08.053Z,15.40
2023-01-28T03:47:37.951Z,15.40
2023-01-28T03:50:09.788Z,15.30
2023-01-28T03:52:41.291Z,15.40
2023-01-28T03:55:25.861Z,15.40
2023-01-28T03:57:56.304Z,15.40
2023-01-28T04:00:27.826Z,15.40
2023-01-28T04:02:58.099Z,15.40
2023-01-28T04:05:29.052Z,15.40
2023-01-28T04:07:56.668Z,15.40
2023-01-28T04:10:24.001Z,15.40
2023-01-28T04:13:20.230Z,15.40
2023-01-28T04:15:51.975Z,15.30
2023-01-28T04:18:29.531Z,15.40
2023-01-28T04:20:56.255Z,15.30
2023-01-28T04:23:29.839Z,15.30
2023-01-28T04:26:01.343Z,15.30
2023-01-28T04:28:31.129Z,15.30
2023-01-28T04:31:02.891Z,15.30
2023-01-28T04:33:31.567Z,15.30
2023-01-28T04:36:03.524Z,15.30
2023-01-28T04:38:34.470Z,15.30
2023-01-28T04:41:05.694Z,15.30
2023-01-28T04:43:36.181Z,15.30
2023-01-28T04:46:08.965Z,15.30
2023-01-28T04:48:39.549Z,15.30
2023-01-28T04:51:10.914Z,15.30
2023-01-28T04:53:41.125Z,15.30
2023-01-28T04:56:10.347Z,15.30
2023-01-28T04:58:43.445Z,15.30
2023-01-28T05:01:13.972Z,15.30
2023-01-28T05:03:44.719Z,15.30
2023-01-28T05:06:14.022Z,15.30
2023-01-28T05:08:48.624Z,15.30
2023-01-28T05:11:18.909Z,15.30
2023-01-28T05:13:45.599Z,15.30
2023-01-28T05:16:13.656Z,15.30
2023-01-28T05:18:46.733Z,15.30
2023-01-28T05:21:18.162Z,15.30
2023-01-28T05:23:49.598Z,15.30
2023-01-28T05:26:18.602Z,15.20
2023-01-28T05:28:49.617Z,15.20
2023-01-28T05:31:21.335Z,15.20
2023-01-28T05:33:51.505Z,15.20
2023-01-28T05:36:22.767Z,15.20
2023-01-28T05:38:53.645Z,15.20
2023-01-28T05:41:25.436Z,15.20
2023-01-28T05:43:53.304Z,15.20
2023-01-28T05:46:24.777Z,15.20
2023-01-28T05:48:55.886Z,15.20
2023-01-28T05:51:24.483Z,15.20
2023-01-28T05:53:54.626Z,15.20
2023-01-28T05:56:22.933Z,15.20
2023-01-28T05:58:53.967Z,15.20
2023-01-28T06:01:26.301Z,15.20
2023-01-28T06:04:01.558Z,15.20
2023-01-28T06:06:33.185Z,15.20
2023-01-28T06:09:03.617Z,15.20
2023-01-28T06:11:39.517Z,15.20
2023-01-28T06:14:10.051Z,15.20
2023-01-28T06:16:40.424Z,15.20
2023-01-28T06:19:08.566Z,15.20
2023-01-28T06:21:38.899Z,15.10
2023-01-28T06:24:09.465Z,15.20
2023-01-28T06:26:40.628Z,15.20
2023-01-28T06:29:10.965Z,15.10
2023-01-28T06:31:38.956Z,15.10
2023-01-28T06:34:07.050Z,15.10
2023-01-28T06:36:40.474Z,15.10
2023-01-28T06:39:09.884Z,15.20
2023-01-28T06:41:41.100Z,15.10
2023-01-28T06:44:16.456Z,15.20
2023-01-28T06:46:45.891Z,15.20
2023-01-28T06:49:14.048Z,15.20
2023-01-28T06:51:44.716Z,15.20
2023-01-28T06:54:13.695Z,15.20
2023-01-28T06:56:46.460Z,15.20
2023-01-28T06:59:22.601Z,15.20
2023-01-28T07:01:51.576Z,15.20
2023-01-28T07:04:21.804Z,15.20
2023-01-28T07:06:51.016Z,15.20
2023-01-28T07:09:22.071Z,15.10
2023-01-28T07:11:55.899Z,15.10
2023-01-28T07:14:23.530Z,15.10
2023-01-28T07:16:55.360Z,15.10
2023-01-28T07:19:26.392Z,15.10
2023-01-28T07:22:00.794Z,15.10
2023-01-28T07:24:36.105Z,15.10
2023-01-28T07:29:50.424Z,15.10
2023-01-28T07:32:20.889Z,15.10
2023-01-28T07:34:53.325Z,15.10
2023-01-28T07:37:27.713Z,15.10
2023-01-28T07:39:56.778Z,15.10
2023-01-28T07:42:26.628Z,15.10
2023-01-28T07:44:54.835Z,15.10
2023-01-28T07:47:25.247Z,15.10
2023-01-28T07:49:56.132Z,15.10
2023-01-28T07:52:26.009Z,15.10
2023-01-28T07:54:57.889Z,15.10
2023-01-28T07:57:32.556Z,15.10
2023-01-28T08:00:03.881Z,15.10
2023-01-28T08:02:35.194Z,15.10
2023-01-28T08:05:05.872Z,15.10
2023-01-28T08:07:37.570Z,15.10
2023-01-28T08:10:07.607Z,15.10
2023-01-28T08:12:36.781Z,15.10
2023-01-28T08:15:08.301Z,15.10
2023-01-28T08:17:37.400Z,15.10
2023-01-28T08:20:10.196Z,15.10
2023-01-28T08:22:36.937Z,15.10
2023-01-28T08:25:07.721Z,15.10
2023-01-28T08:27:37.789Z,15.10
2023-01-28T08:30:13.489Z,15.10
2023-01-28T08:32:43.672Z,15.10
2023-01-28T08:35:18.291Z,15.00
2023-01-28T08:37:50.444Z,15.00
2023-01-28T08:40:17.988Z,15.00
2023-01-28T08:42:55.227Z,15.00
2023-01-28T08:45:29.985Z,15.00
2023-01-28T08:48:08.501Z,15.00
2023-01-28T08:50:40.986Z,15.00
2023-01-28T08:53:20.177Z,15.00
2023-01-28T08:55:50.631Z,15.00
2023-01-28T08:58:21.333Z,15.00
2023-01-28T09:00:50.537Z,15.00
2023-01-28T09:03:19.879Z,15.00
2023-01-28T09:05:52.033Z,15.00
2023-01-28T09:08:24.333Z,15.00
2023-01-28T09:11:05.810Z,15.00
2023-01-28T09:13:34.095Z,15.00
2023-01-28T09:16:04.747Z,15.00
2023-01-28T09:18:38.230Z,15.00
2023-01-28T09:21:11.669Z,15.00
2023-01-28T09:23:42.923Z,15.00
2023-01-28T09:26:14.776Z,15.00
2023-01-28T09:28:46.967Z,15.00
2023-01-28T09:31:16.934Z,15.00
2023-01-28T09:33:48.277Z,15.00
2023-01-28T09:36:16.050Z,15.00
2023-01-28T09:38:47.492Z,15.00
2023-01-28T09:42:03.031Z,15.00
2023-01-28T09:44:46.492Z,15.00
2023-01-28T09:47:51.519Z,15.10
2023-01-28T09:50:52.924Z,15.00
2023-01-28T09:53:36.145Z,15.00
2023-01-28T09:56:14.350Z,15.00
2023-01-28T09:58:44.034Z,15.00
2023-01-28T10:01:42.812Z,15.00
2023-01-28T10:04:29.747Z,15.00
2023-01-28T10:07:28.239Z,15.00
2023-01-28T10:10:15.580Z,15.00
2023-01-28T10:12:58.138Z,15.00
2023-01-28T10:15:59.123Z,15.00
2023-01-28T10:19:00.813Z,15.00
2023-01-28T10:21:37.007Z,15.00
2023-01-28T10:24:14.337Z,15.00
2023-01-28T10:26:48.125Z,15.00
2023-01-28T10:29:19.062Z,15.00
2023-01-28T10:32:20.758Z,15.00
2023-01-28T10:34:57.642Z,15.00
2023-01-28T10:37:26.251Z,15.00
2023-01-28T10:40:03.483Z,15.00
2023-01-28T10:42:38.951Z,15.00
2023-01-28T10:45:29.560Z,15.00
2023-01-28T10:48:23.493Z,15.00
2023-01-28T10:51:01.934Z,15.00
2023-01-28T10:53:49.772Z,14.90
2023-01-28T10:56:25.486Z,15.00
2023-01-28T10:59:01.626Z,14.90
2023-01-28T11:01:54.731Z,15.00
2023-01-28T11:04:34.595Z,15.00
2023-01-28T11:07:21.129Z,15.00
2023-01-28T11:09:54.405Z,15.00
2023-01-28T11:12:33.231Z,15.00
2023-01-28T11:15:06.936Z,15.00
2023-01-28T11:17:41.004Z,15.00
2023-01-28T11:20:29.955Z,15.00
2023-01-28T11:23:02.595Z,15.00
2023-01-28T11:25:46.605Z,15.00
2023-01-28T11:28:22.647Z,15.00
2023-01-28T11:30:59.204Z,15.00
2023-01-28T11:34:07.913Z,15.00
2023-01-28T11:36:36.060Z,15.00
2023-01-28T11:39:33.744Z,15.00
2023-01-28T11:42:22.533Z,15.00
2023-01-28T11:44:52.259Z,15.00
2023-01-28T11:47:46.151Z,14.90
2023-01-28T11:50:36.746Z,15.00
2023-01-28T11:53:17.939Z,15.00
2023-01-28T11:56:25.992Z,15.00
2023-01-28T11:59:15.892Z,15.00
2023-01-28T12:02:20.573Z,15.00
2023-01-28T12:05:05.726Z,15.00
2023-01-28T12:08:17.588Z,15.00
2023-01-28T12:11:52.789Z,15.00
2023-01-28T12:14:44.048Z,15.00
2023-01-28T12:17:44.893Z,15.00
2023-01-28T12:20:44.794Z,15.00
2023-01-28T12:23:51.065Z,15.00
2023-01-28T12:26:43.786Z,15.00
2023-01-28T12:29:29.975Z,15.00
2023-01-28T12:32:42.034Z,15.00
2023-01-28T12:35:54.066Z,15.00
2023-01-28T12:38:36.201Z,15.00
2023-01-28T12:41:40.990Z,15.00
2023-01-28T12:44:29.339Z,15.00
2023-01-28T12:47:07.461Z,15.00
2023-01-28T12:49:37.168Z,15.00
2023-01-28T12:52:24.378Z,15.00
2023-01-28T12:55:23.669Z,15.00
2023-01-28T12:57:56.195Z,15.00
2023-01-28T13:00:44.990Z,15.00
2023-01-28T13:03:21.351Z,15.00
2023-01-28T13:06:35.891Z,15.00
2023-01-28T13:09:21.063Z,15.00
2023-01-28T13:11:55.350Z,15.00
2023-01-28T13:14:31.025Z,15.00
2023-01-28T13:17:32.596Z,15.00
2023-01-28T13:20:03.045Z,15.00
2023-01-28T13:22:38.684Z,15.00
2023-01-28T13:25:28.012Z,15.00
2023-01-28T13:28:04.159Z,15.00
2023-01-28T13:30:34.658Z,15.10
2023-01-28T13:33:42.484Z,15.00
2023-01-28T13:36:23.430Z,15.00
2023-01-28T13:39:11.845Z,15.10
2023-01-28T13:42:05.095Z,15.00
2023-01-28T13:44:35.314Z,15.00
2023-01-28T13:47:19.136Z,15.00
2023-01-28T13:50:08.646Z,15.00
2023-01-28T13:53:05.211Z,15.10
2023-01-28T13:55:56.873Z,15.00
2023-01-28T13:58:50.780Z,15.10
2023-01-28T14:01:55.457Z,15.00
2023-01-28T14:04:45.309Z,15.10
2023-01-28T14:07:43.277Z,15.10
2023-01-28T14:10:48.563Z,15.10
2023-01-28T14:13:37.144Z,15.10
2023-01-28T14:16:43.145Z,15.00
2023-01-28T14:19:24.361Z,15.00
2023-01-28T14:21:54.292Z,15.10
2023-01-28T14:27:44.449Z,15.10
2023-01-28T14:30:58.482Z,15.10
2023-01-28T14:33:31.373Z,15.10
2023-01-28T14:35:59.693Z,15.10
2023-01-28T14:38:28.504Z,15.10
2023-01-28T14:41:02.192Z,15.10
2023-01-28T14:43:35.421Z,15.10
2023-01-28T14:49:52.958Z,15.10
2023-01-28T14:52:49.032Z,15.10
2023-01-28T14:55:35.813Z,15.10
2023-01-28T14:58:15.879Z,15.10
2023-01-28T15:01:06.836Z,15.10
2023-01-28T15:03:39.848Z,15.10
2023-01-28T15:06:17.997Z,15.10
2023-01-28T15:08:48.508Z,15.10
2023-01-28T15:11:29.574Z,15.10
2023-01-28T15:14:02.803Z,15.10
2023-01-28T15:16:36.007Z,15.10
2023-01-28T15:19:09.991Z,15.10
2023-01-28T15:21:40.434Z,15.10
2023-01-28T15:24:19.337Z,15.10
2023-01-28T15:26:52.280Z,15.10
2023-01-28T15:29:43.086Z,15.10
2023-01-28T15:32:31.189Z,15.10
2023-01-28T15:35:01.189Z,15.10
2023-01-28T15:37:29.420Z,15.10
2023-01-28T15:40:11.933Z,15.10
2023-01-28T15:42:40.620Z,15.10
2023-01-28T15:45:28.440Z,15.10
2023-01-28T15:48:04.674Z,15.10
2023-01-28T15:50:46.491Z,15.10
2023-01-28T15:53:18.482Z,15.10
2023-01-28T15:55:49.394Z,15.10
2023-01-28T15:58:36.755Z,15.10
2023-01-28T16:01:15.272Z,15.10
2023-01-28T16:03:49.311Z,15.10
2023-01-28T16:06:24.095Z,15.10
2023-01-28T16:09:07.072Z,15.10
2023-01-28T16:11:52.172Z,15.10
2023-01-28T16:14:32.784Z,15.10
2023-01-28T16:17:04.087Z,15.10
2023-01-28T16:19:52.921Z,15.10
2023-01-28T16:22:39.254Z,15.10
2023-01-28T16:28:22.257Z,15.10
2023-01-28T16:30:51.895Z,15.10
2023-01-28T16:33:25.464Z,15.10
2023-01-28T16:38:37.895Z,15.00
2023-01-28T16:41:30.253Z,15.10
2023-01-28T16:44:17.071Z,15.00
2023-01-28T16:46:49.759Z,15.00
2023-01-28T16:49:23.846Z,15.00
2023-01-28T16:51:53.622Z,15.00
2023-01-28T16:54:22.875Z,15.00
2023-01-28T16:56:57.313Z,15.10
2023-01-28T16:59:25.183Z,15.10
2023-01-28T17:01:56.947Z,15.10
2023-01-28T17:04:26.265Z,15.00
2023-01-28T17:06:56.191Z,15.10
2023-01-28T17:09:27.682Z,15.00
2023-01-28T17:11:57.580Z,15.00
2023-01-28T17:14:29.203Z,15.00
2023-01-28T17:16:57.409Z,15.10
2023-01-28T17:19:25.630Z,15.10
2023-01-28T17:21:54.237Z,15.10
2023-01-28T17:24:23.470Z,15.00
2023-01-28T17:26:58.087Z,15.10
2023-01-28T17:29:31.592Z,15.10
2023-01-28T17:32:01.771Z,15.00
2023-01-28T17:34:34.271Z,15.10
2023-01-28T17:37:02.688Z,15.10
2023-01-28T17:39:34.622Z,15.10
2023-01-28T17:42:07.213Z,15.00
2023-01-28T17:44:38.170Z,15.10
2023-01-28T17:47:09.962Z,15.10
2023-01-28T17:49:45.806Z,15.00
2023-01-28T17:52:13.471Z,15.00
2023-01-28T17:54:42.965Z,15.00
2023-01-28T17:57:11.374Z,15.00
2023-01-28T17:59:42.474Z,15.00
2023-01-28T18:02:15.344Z,15.00
2023-01-28T18:04:43.597Z,15.00
2023-01-28T18:07:14.607Z,15.00
2023-01-28T18:09:44.461Z,15.00
2023-01-28T18:12:15.728Z,15.00
2023-01-28T18:14:44.792Z,15.00
2023-01-28T18:17:16.665Z,15.00
2023-01-28T18:19:47.040Z,15.00
2023-01-28T18:22:16.262Z,15.00
2023-01-28T18:24:48.445Z,15.00
2023-01-28T18:27:19.885Z,15.00
2023-01-28T18:29:54.060Z,14.90
2023-01-28T18:32:23.893Z,15.00
2023-01-28T18:34:54.634Z,14.90
2023-01-28T18:37:23.721Z,14.90
2023-01-28T18:39:55.144Z,14.90
2023-01-28T18:42:30.719Z,14.90
2023-01-28T18:44:59.515Z,14.90
2023-01-28T18:47:26.437Z,14.90
2023-01-28T18:49:55.942Z,14.90
2023-01-28T18:52:26.320Z,14.90
2023-01-28T18:55:00.133Z,14.90
2023-01-28T18:57:30.473Z,14.90
2023-01-28T19:00:00.702Z,14.90
2023-01-28T19:02:30.525Z,14.80
2023-01-28T19:04:57.311Z,14.80
2023-01-28T19:07:27.709Z,14.80
2023-01-28T19:09:58.154Z,14.80
2023-01-28T19:12:28.496Z,14.80
2023-01-28T19:14:58.173Z,14.80
2023-01-28T19:17:25.987Z,14.80
2023-01-28T19:19:57.790Z,14.80
2023-01-28T19:22:26.459Z,14.80
2023-01-28T19:24:55.185Z,14.80
2023-01-28T19:27:26.900Z,14.80
2023-01-28T19:29:58.505Z,14.80
2023-01-28T19:35:11.739Z,14.80
2023-01-28T19:37:39.739Z,14.80
2023-01-28T19:42:57.848Z,14.80
2023-01-28T19:45:26.786Z,14.80
2023-01-28T19:47:59.017Z,14.80
2023-01-28T19:50:28.109Z,14.80
2023-01-28T19:52:56.402Z,14.80
2023-01-28T19:55:26.940Z,14.80
2023-01-28T19:57:55.931Z,14.80
2023-01-28T20:00:24.825Z,14.70
2023-01-28T20:02:55.429Z,14.80
2023-01-28T20:05:24.539Z,14.80
2023-01-28T20:07:56.872Z,14.70
2023-01-28T20:10:26.867Z,14.70
2023-01-28T20:12:58.579Z,14.70
2023-01-28T20:15:29.848Z,14.70
2023-01-28T20:18:00.329Z,14.70
2023-01-28T20:20:31.747Z,14.70
2023-01-28T20:23:02.963Z,14.70
2023-01-28T20:25:33.121Z,14.70
2023-01-28T20:28:01.935Z,14.70
2023-01-28T20:30:30.036Z,14.70
2023-01-28T20:32:58.113Z,14.70
2023-01-28T20:35:28.742Z,14.70
2023-01-28T20:38:02.015Z,14.70
2023-01-28T20:40:35.461Z,14.60
2023-01-28T20:43:08.833Z,14.70
2023-01-28T20:45:47.085Z,14.60
2023-01-28T20:48:15.895Z,14.60
2023-01-28T20:50:46.257Z,14.60
2023-01-28T20:53:18.416Z,14.60
2023-01-28T20:55:56.930Z,14.60
2023-01-28T20:58:26.933Z,14.60
2023-01-28T21:00:57.179Z,14.70
2023-01-28T21:03:26.733Z,14.60
2023-01-28T21:05:54.596Z,14.60
2023-01-28T21:08:23.525Z,14.60
2023-01-28T21:10:53.136Z,14.60
2023-01-28T21:13:23.306Z,14.60
2023-01-28T21:16:00.733Z,14.60
2023-01-28T21:21:24.166Z,14.60
2023-01-28T21:23:58.105Z,14.60
2023-01-28T21:26:32.458Z,14.60
2023-01-28T21:29:02.160Z,14.60
2023-01-28T21:31:43.169Z,14.60
2023-01-28T21:34:13.150Z,14.60
2023-01-28T21:36:42.601Z,14.60
2023-01-28T21:39:12.293Z,14.60
2023-01-28T21:41:42.885Z,14.60
2023-01-28T21:44:16.970Z,14.50
2023-01-28T21:46:48.274Z,14.60
2023-01-28T21:49:20.204Z,14.50
2023-01-28T21:51:51.024Z,14.50
2023-01-28T21:54:19.781Z,14.50
2023-01-28T21:56:51.719Z,14.50
2023-01-28T21:59:31.243Z,14.50
2023-01-28T22:02:15.060Z,14.50
2023-01-28T22:04:53.102Z,14.50
2023-01-28T22:07:23.722Z,14.50
2023-01-28T22:09:55.433Z,14.50
2023-01-28T22:12:25.193Z,14.40
2023-01-28T22:14:55.245Z,14.50
2023-01-28T22:17:24.616Z,14.50
2023-01-28T22:19:57.491Z,14.50
2023-01-28T22:22:29.039Z,14.50
2023-01-28T22:25:02.758Z,14.50
2023-01-28T22:27:33.997Z,14.50
2023-01-28T22:30:05.509Z,14.50
2023-01-28T22:32:34.765Z,14.40
2023-01-28T22:35:07.338Z,14.40
2023-01-28T22:37:42.703Z,14.40
2023-01-28T22:40:15.241Z,14.40
2023-01-28T22:42:46.228Z,14.40
2023-01-28T22:45:18.862Z,14.40
2023-01-28T22:47:49.259Z,14.40
2023-01-28T22:50:18.625Z,14.40
2023-01-28T22:52:50.425Z,14.40
2023-01-28T22:55:21.827Z,14.40
2023-01-28T22:57:53.892Z,14.40
2023-01-28T23:00:35.481Z,14.40
2023-01-28T23:03:07.041Z,14.40
2023-01-28T23:05:40.029Z,14.40
2023-01-28T23:08:14.332Z,14.30
2023-01-28T23:10:53.621Z,14.40
2023-01-28T23:13:24.089Z,14.40
2023-01-28T23:16:13.368Z,14.40
2023-01-28T23:18:41.812Z,14.40
2023-01-28T23:21:53.508Z,14.30
2023-01-28T23:24:26.698Z,14.40
2023-01-28T23:26:56.744Z,14.30
2023-01-28T23:29:54.621Z,14.30
2023-01-28T23:32:24.281Z,14.30
2023-01-28T23:34:57.742Z,14.30
2023-01-28T23:37:26.815Z,14.30
2023-01-28T23:40:00.302Z,14.30
2023-01-28T23:42:31.170Z,14.30
2023-01-28T23:45:03.647Z,14.30
2023-01-28T23:47:32.345Z,14.30
2023-01-28T23:50:05.434Z,14.30
2023-01-28T23:55:19.704Z,14.30
2023-01-28T23:57:50.941Z,14.30
